Terminal Aerodrome Forecast
Issued by NWS Houston/Galveston, TX

Home | Current Version | Previous Version | Text Only | Print | Product List | Glossary On
Versions: 1 2 3 4 5 6 7 8 9 10 11 12 13 14 15 16 17 18 19 20 21 22 23 24 25 26 27 28
000
FTUS44 KHGX 021138
TAFCLL
TAF
KCLL 021138Z 0212/0312 18006KT 5SM BR BKN015 BKN045
     FM021400 18011KT P6SM SCT015 BKN025
     FM021800 17011KT P6SM SCT025 BKN050
     FM022100 18012KT P6SM VCSH BKN050
     FM022300 18011KT P6SM VCTS BKN040CB BKN250
      TEMPO 0300/0303 34020G30KT 3SM TSRA BKN020CB
     FM030300 34010KT P6SM BKN050 BKN100=

USA.gov is the U.S. government's official web portal to all federal, state and local government web resources and services.